Archival Weather

Chicago O'Hare International

Chicago, Illinois (KORD)

Report from: Sunday, December 4, 2022 2:51 PM CST
Current time: Friday, June 14, 2024 6:29 AM CDT

Current weather – Weather history – Daily summaries
Weather forecast

Temperature4.4°C (39.9°F)
Wind chill0.8°C (33.4°F)
Dew point-10.0°C (14.0°F)
Winds 9 kts (4.6 m/s, 10.4 mph) West-Southwest (240°)
Visibility10 mi. (16.1 km)
Clouds Few clouds 25,000 ft. (7,620 m)
Altimeter30.08 in.Hg (1019 mB)
Relative humidity34 %
Density altitude-1,434 ft. (-437 m)
Sea-level pressure101.9 kPa (1019 mB, 30.10 in.Hg)
Remarks System requires maintenance
Automated weather observing station with precipitation discriminator
Pressure falling more slowly
Flight conditions Visual Meteorological Conditions
Raw dataKORD 042051Z 24009KT 10SM FEW250 04/M10 A3008 RMK AO2 SLP192 T00441100 56021 $
An error has occurred. This application may no longer respond until reloaded. Reload 🗙